Time;durP1;ratioP1;P1;durP2;ratioP2;P2;SDS_P1;SDS_P2;PMS_P1;PMS_P2;Temp;Humidity;BMP_temperature;BMP_pressure;BME280_temperature;BME280_humidity;BME280_pressure;Samples;Min_cycle;Max_cycle;Signal;HPM_P1;HPM_P2
2022/07/27 00:01:43;;;;;;;1.95;0.80;;;13.80;94.30;;;;;;4954335;28;20094;-71
2022/07/27 00:04:10;;;;;;;1.60;0.50;;;13.70;94.30;;;;;;4955497;28;20019;-66
2022/07/27 00:06:37;;;;;;;4.07;1.05;;;13.70;94.20;;;;;;4955305;28;20102;-67
2022/07/27 00:09:04;;;;;;;1.98;0.80;;;13.80;94.60;;;;;;4956324;28;20031;-69
2022/07/27 00:11:31;;;;;;;5.20;1.35;;;13.80;94.70;;;;;;4957786;28;20111;-71
2022/07/27 00:13:59;;;;;;;6.28;1.30;;;14.00;94.90;;;;;;4954806;28;20062;-68
2022/07/27 00:16:26;;;;;;;10.95;2.47;;;14.10;93.70;;;;;;4937253;28;20539;-70
2022/07/27 00:18:53;;;;;;;3.20;1.45;;;14.10;92.80;;;;;;4953964;28;20027;-71
2022/07/27 00:21:20;;;;;;;5.10;1.17;;;14.10;93.70;;;;;;4953916;28;20524;-69
2022/07/27 00:23:47;;;;;;;4.25;1.00;;;14.20;93.60;;;;;;4953939;28;20061;-68
2022/07/27 00:26:14;;;;;;;9.30;1.17;;;14.20;92.20;;;;;;4954338;28;20047;-67
2022/07/27 00:28:41;;;;;;;2.80;0.93;;;14.20;92.30;;;;;;4956080;28;20118;-69
2022/07/27 00:31:09;;;;;;;6.10;1.25;;;14.20;91.60;;;;;;4954986;28;20023;-67
2022/07/27 00:33:36;;;;;;;3.45;1.20;;;14.30;92.50;;;;;;4953748;28;20042;-69
2022/07/27 00:36:03;;;;;;;5.80;0.75;;;14.30;91.90;;;;;;4954863;28;20538;-68
2022/07/27 00:38:30;;;;;;;1.77;0.75;;;14.40;91.20;;;;;;4953366;28;20385;-70
2022/07/27 00:40:57;;;;;;;2.47;0.75;;;14.40;91.20;;;;;;4955033;28;20023;-67
2022/07/27 00:43:24;;;;;;;4.05;0.80;;;14.50;90.70;;;;;;4953871;28;20011;-69
2022/07/27 00:45:52;;;;;;;4.88;1.02;;;14.70;91.40;;;;;;4953485;28;20050;-68
2022/07/27 00:48:19;;;;;;;3.50;0.90;;;14.90;91.00;;;;;;4955804;28;20031;-68
2022/07/27 00:50:47;;;;;;;5.35;1.13;;;15.20;90.10;;;;;;4953928;28;20023;-69
2022/07/27 00:53:15;;;;;;;2.17;0.57;;;15.10;90.40;;;;;;4935951;28;20312;-69
2022/07/27 00:55:43;;;;;;;6.28;1.17;;;15.20;88.20;;;;;;4952269;28;20031;-68
2022/07/27 00:58:10;;;;;;;5.13;0.88;;;15.10;88.40;;;;;;4955499;28;20023;-70
2022/07/27 01:00:38;;;;;;;7.00;1.02;;;15.20;88.80;;;;;;4953191;28;20081;-68
2022/07/27 01:03:05;;;;;;;3.72;1.30;;;15.40;88.50;;;;;;4952354;28;20035;-69
2022/07/27 01:05:36;;;;;;;7.93;1.60;;;15.50;87.60;;;;;;4936160;28;20034;-68
2022/07/27 01:08:05;;;;;;;7.75;1.00;;;15.70;88.50;;;;;;4951528;28;20023;-70
2022/07/27 01:10:32;;;;;;;5.80;0.82;;;15.60;84.30;;;;;;4952705;28;20484;-71
2022/07/27 01:13:00;;;;;;;5.15;1.38;;;15.70;85.90;;;;;;4935025;28;20027;-71
2022/07/27 01:15:27;;;;;;;5.55;1.05;;;15.80;84.30;;;;;;4935241;28;20412;-69
2022/07/27 01:17:54;;;;;;;4.80;0.90;;;15.70;84.80;;;;;;4953272;28;20058;-69
2022/07/27 01:20:21;;;;;;;5.07;1.42;;;15.80;84.90;;;;;;4953345;28;20025;-69
2022/07/27 01:22:48;;;;;;;3.90;1.10;;;15.90;82.70;;;;;;4952135;28;20027;-71
2022/07/27 01:25:16;;;;;;;2.28;0.77;;;15.90;84.70;;;;;;4952421;28;20023;-68
2022/07/27 01:27:43;;;;;;;3.65;0.82;;;16.00;82.40;;;;;;4954459;28;20027;-71
2022/07/27 01:30:26;;;;;;;5.43;1.00;;;15.90;82.20;;;;;;4954049;28;20399;-71
2022/07/27 01:33:04;;;;;;;2.65;0.73;;;15.90;82.70;;;;;;4951612;28;20401;-69
2022/07/27 01:35:31;;;;;;;4.18;0.90;;;16.00;81.80;;;;;;4950548;28;20031;-70
2022/07/27 01:37:59;;;;;;;1.88;0.60;;;16.10;83.10;;;;;;4952511;28;20034;-68
2022/07/27 01:40:26;;;;;;;4.15;0.68;;;16.00;82.40;;;;;;4950631;28;20035;-72
2022/07/27 01:42:54;;;;;;;3.67;0.95;;;16.20;83.50;;;;;;4939101;28;20503;-68
2022/07/27 01:45:21;;;;;;;1.75;0.73;;;16.60;83.60;;;;;;4954260;28;20055;-68
2022/07/27 01:47:48;;;;;;;5.28;1.02;;;17.00;81.30;;;;;;4952958;28;20083;-68
2022/07/27 01:50:15;;;;;;;3.45;1.40;;;16.90;81.50;;;;;;4952020;28;20020;-69
2022/07/27 01:52:43;;;;;;;4.20;0.85;;;16.80;79.00;;;;;;4952588;28;20447;-71
2022/07/27 01:55:11;;;;;;;5.80;1.05;;;16.80;80.10;;;;;;4952313;28;20034;-67
2022/07/27 01:57:39;;;;;;;4.40;0.73;;;16.90;78.30;;;;;;4948640;28;20039;-70
2022/07/27 02:00:09;;;;;;;7.03;1.50;;;17.10;80.70;;;;;;4933439;28;20472;-73
2022/07/27 02:02:37;;;;;;;4.50;1.13;;;17.40;79.00;;;;;;4934415;29;20052;-73
2022/07/27 02:05:05;;;;;;;3.35;1.00;;;17.50;79.20;;;;;;4954933;28;20567;-71
2022/07/27 02:07:32;;;;;;;3.80;1.00;;;17.60;79.60;;;;;;4951682;28;20035;-71
2022/07/27 02:09:59;;;;;;;5.22;0.90;;;17.70;80.30;;;;;;4951621;28;20027;-69
2022/07/27 02:12:35;;;;;;;2.70;0.82;;;17.70;78.30;;;;;;4953229;28;20035;-71
2022/07/27 02:15:15;;;;;;;4.85;1.15;;;17.60;77.50;;;;;;4953280;28;20031;-67
2022/07/27 02:17:44;;;;;;;2.03;0.75;;;17.60;77.50;;;;;;4953492;28;20027;-67
2022/07/27 02:20:12;;;;;;;2.45;0.88;;;17.60;76.20;;;;;;4932720;28;20030;-68
2022/07/27 02:22:39;;;;;;;3.22;0.82;;;17.70;76.10;;;;;;4950406;28;20059;-69
2022/07/27 02:25:08;;;;;;;3.92;1.27;;;17.80;76.30;;;;;;4956141;28;20445;-67
2022/07/27 02:27:35;;;;;;;3.88;1.75;;;17.80;76.60;;;;;;4952615;28;20041;-68
2022/07/27 02:30:03;;;;;;;2.88;0.93;;;17.80;77.00;;;;;;4951743;28;20115;-68
2022/07/27 02:32:30;;;;;;;2.97;0.90;;;17.60;75.40;;;;;;4950663;28;20038;-68
2022/07/27 02:34:57;;;;;;;4.93;0.80;;;17.50;77.10;;;;;;4936748;28;20200;-70
2022/07/27 02:37:25;;;;;;;4.97;1.30;;;17.50;76.90;;;;;;4951407;28;20069;-69
2022/07/27 02:39:52;;;;;;;3.00;0.80;;;17.70;78.10;;;;;;4953579;28;20046;-68
2022/07/27 02:42:19;;;;;;;1.48;0.95;;;17.80;75.30;;;;;;4951494;28;20058;-68
2022/07/27 02:44:46;;;;;;;3.90;1.40;;;17.80;77.00;;;;;;4956167;28;20077;-72
2022/07/27 02:47:14;;;;;;;3.85;0.73;;;17.80;76.90;;;;;;4933867;29;20023;-70
2022/07/27 02:49:41;;;;;;;4.57;1.05;;;17.60;75.90;;;;;;4952375;28;20023;-66
2022/07/27 02:52:09;;;;;;;5.28;1.00;;;17.50;77.70;;;;;;4952010;28;20039;-69
2022/07/27 02:54:36;;;;;;;3.63;1.17;;;17.60;75.20;;;;;;4951393;28;20090;-67
2022/07/27 02:57:03;;;;;;;3.55;0.70;;;17.80;76.70;;;;;;4951331;28;20066;-68
2022/07/27 02:59:31;;;;;;;3.65;1.02;;;17.70;74.70;;;;;;4952897;28;20031;-68
2022/07/27 03:01:58;;;;;;;2.97;0.93;;;17.80;76.90;;;;;;4954856;28;20042;-69
2022/07/27 03:04:25;;;;;;;3.10;1.00;;;17.80;76.80;;;;;;4955058;28;20459;-69
2022/07/27 03:06:53;;;;;;;3.83;0.90;;;18.00;76.90;;;;;;4951947;28;20102;-68
2022/07/27 03:09:20;;;;;;;2.58;1.08;;;18.10;75.60;;;;;;4933593;28;20154;-69
2022/07/27 03:11:47;;;;;;;1.23;0.57;;;18.20;75.70;;;;;;4952988;28;20079;-68
2022/07/27 03:14:14;;;;;;;2.15;0.80;;;18.20;75.90;;;;;;4957398;28;20037;-68
2022/07/27 03:16:41;;;;;;;2.92;0.82;;;18.10;75.20;;;;;;4950998;28;20035;-69
2022/07/27 03:19:08;;;;;;;3.15;0.63;;;18.10;74.90;;;;;;4954905;28;20023;-68
2022/07/27 03:21:35;;;;;;;5.30;0.80;;;18.10;74.80;;;;;;4956003;28;20489;-68
2022/07/27 03:24:03;;;;;;;3.30;0.90;;;18.20;75.90;;;;;;4959283;28;20054;-70
2022/07/27 03:26:32;;;;;;;6.43;0.98;;;18.20;74.70;;;;;;4954890;28;20030;-70
2022/07/27 03:28:59;;;;;;;8.27;1.02;;;18.30;75.50;;;;;;4954610;28;20050;-67
2022/07/27 03:31:26;;;;;;;1.58;0.60;;;18.20;75.30;;;;;;4956495;28;20035;-67
2022/07/27 03:33:53;;;;;;;3.50;0.90;;;18.20;75.60;;;;;;4957590;28;20030;-67
2022/07/27 03:36:20;;;;;;;5.00;1.23;;;18.10;74.60;;;;;;4956462;28;20027;-66
2022/07/27 03:38:47;;;;;;;2.85;0.68;;;18.10;75.70;;;;;;4951921;28;20673;-67
2022/07/27 03:41:15;;;;;;;5.50;0.90;;;18.20;75.30;;;;;;4956498;28;20017;-68
2022/07/27 03:43:42;;;;;;;3.60;1.23;;;18.30;74.90;;;;;;4957087;28;20078;-66
2022/07/27 03:46:09;;;;;;;3.00;1.05;;;18.40;74.30;;;;;;4956615;28;20027;-66
2022/07/27 03:48:36;;;;;;;3.03;1.00;;;18.40;74.00;;;;;;4955145;28;20294;-67
2022/07/27 03:51:03;;;;;;;3.83;0.80;;;18.50;74.50;;;;;;4954686;28;20334;-68
2022/07/27 03:53:30;;;;;;;2.20;0.65;;;18.70;74.60;;;;;;4952387;28;20043;-67
2022/07/27 03:55:57;;;;;;;1.63;0.63;;;18.70;72.40;;;;;;4954643;28;20034;-67
2022/07/27 03:58:24;;;;;;;1.95;0.63;;;18.50;73.80;;;;;;4936913;28;20035;-68
2022/07/27 04:00:51;;;;;;;1.63;0.73;;;18.30;73.70;;;;;;4954354;28;20400;-67
2022/07/27 04:03:18;;;;;;;7.43;1.15;;;18.30;73.60;;;;;;4955329;28;20078;-67
2022/07/27 04:05:45;;;;;;;4.28;1.08;;;18.50;75.00;;;;;;4954519;28;20520;-68
2022/07/27 04:08:13;;;;;;;2.92;1.02;;;18.60;73.20;;;;;;4954243;28;20063;-68
2022/07/27 04:10:40;;;;;;;4.00;1.10;;;18.70;74.00;;;;;;4956389;28;20551;-68
2022/07/27 04:13:07;;;;;;;3.80;2.00;;;18.70;72.30;;;;;;4936820;28;20053;-67
2022/07/27 04:15:35;;;;;;;3.97;0.88;;;18.80;72.90;;;;;;4954035;28;20034;-67
2022/07/27 04:18:02;;;;;;;5.63;1.20;;;18.70;72.30;;;;;;4954270;28;20027;-67
2022/07/27 04:20:29;;;;;;;4.68;0.65;;;18.70;73.70;;;;;;4955853;28;20015;-68
2022/07/27 04:22:56;;;;;;;4.07;1.10;;;18.70;72.80;;;;;;4950339;28;20123;-67
2022/07/27 04:25:23;;;;;;;5.32;1.55;;;18.80;73.20;;;;;;4953035;28;20030;-67
2022/07/27 04:27:53;;;;;;;2.08;0.95;;;18.90;72.00;;;;;;4948048;28;20036;-69
2022/07/27 04:30:20;;;;;;;3.45;0.88;;;18.70;72.80;;;;;;4954853;28;20026;-68
2022/07/27 04:32:47;;;;;;;2.47;0.90;;;18.60;72.60;;;;;;4947088;28;20094;-67
2022/07/27 04:35:15;;;;;;;5.40;0.95;;;18.60;73.70;;;;;;4935652;29;20039;-67
2022/07/27 04:37:42;;;;;;;2.53;0.88;;;18.70;72.10;;;;;;4954137;28;20029;-67
2022/07/27 04:40:10;;;;;;;8.55;1.25;;;18.50;71.30;;;;;;4953176;28;20063;-67
2022/07/27 04:42:37;;;;;;;3.28;0.90;;;18.60;72.90;;;;;;4952446;28;20034;-68
2022/07/27 04:45:04;;;;;;;2.50;1.05;;;18.60;72.80;;;;;;4954021;28;20029;-67
2022/07/27 04:47:32;;;;;;;4.55;1.05;;;18.70;73.70;;;;;;4953524;28;20436;-67
2022/07/27 04:49:59;;;;;;;4.63;1.33;;;18.70;73.80;;;;;;4956414;28;20046;-69
2022/07/27 04:52:27;;;;;;;3.70;1.08;;;18.70;73.70;;;;;;4959408;23;20086;-69
2022/07/27 04:54:54;;;;;;;4.43;0.90;;;18.60;71.40;;;;;;4954304;28;20050;-68
2022/07/27 04:57:22;;;;;;;4.53;0.90;;;18.60;72.10;;;;;;4953799;28;20500;-68
2022/07/27 04:59:49;;;;;;;3.92;1.00;;;18.70;73.20;;;;;;4953846;28;20025;-70
2022/07/27 05:02:16;;;;;;;5.03;1.10;;;18.70;73.10;;;;;;4952978;28;20749;-68
2022/07/27 05:04:43;;;;;;;6.72;1.40;;;18.90;74.60;;;;;;4955901;28;20023;-68
2022/07/27 05:07:10;;;;;;;4.95;1.27;;;19.00;73.00;;;;;;4952742;28;20070;-68
2022/07/27 05:09:37;;;;;;;4.47;1.45;;;18.90;74.10;;;;;;4954644;28;20078;-70
2022/07/27 05:12:04;;;;;;;3.08;1.05;;;18.70;73.90;;;;;;4952413;28;20424;-68
2022/07/27 05:14:31;;;;;;;9.35;1.67;;;18.60;74.00;;;;;;4951355;28;20102;-69
2022/07/27 05:16:58;;;;;;;4.32;1.23;;;18.60;74.10;;;;;;4952648;28;20023;-69
2022/07/27 05:19:26;;;;;;;5.43;1.20;;;18.50;73.30;;;;;;4952450;28;20145;-69
2022/07/27 05:21:53;;;;;;;5.45;1.08;;;18.30;73.70;;;;;;4952448;28;20027;-68
2022/07/27 05:24:20;;;;;;;7.95;1.38;;;18.30;73.30;;;;;;4952366;28;20015;-68
2022/07/27 05:26:47;;;;;;;6.57;1.20;;;18.30;73.50;;;;;;4952794;28;20023;-69
2022/07/27 05:29:14;;;;;;;4.68;1.42;;;18.40;74.20;;;;;;4951888;28;20077;-67
2022/07/27 05:31:41;;;;;;;9.07;1.45;;;18.50;73.30;;;;;;4935268;29;20598;-68
2022/07/27 05:34:08;;;;;;;14.13;1.48;;;18.40;73.70;;;;;;4952660;28;20114;-69
2022/07/27 05:36:35;;;;;;;8.80;1.50;;;18.30;73.40;;;;;;4952258;28;20488;-69
2022/07/27 05:39:02;;;;;;;9.00;1.20;;;18.30;73.30;;;;;;4951459;28;20035;-68
2022/07/27 05:41:29;;;;;;;8.68;1.30;;;18.30;74.00;;;;;;4951072;28;20075;-67
2022/07/27 05:43:57;;;;;;;4.65;1.05;;;18.30;74.60;;;;;;4951788;28;20039;-68
2022/07/27 05:46:24;;;;;;;2.58;1.00;;;18.30;73.20;;;;;;4955154;28;20077;-67
2022/07/27 05:48:51;;;;;;;8.20;1.15;;;18.20;75.00;;;;;;4954653;28;20035;-72
2022/07/27 05:51:18;;;;;;;9.90;1.60;;;18.40;73.60;;;;;;4935152;29;20444;-71
2022/07/27 05:53:45;;;;;;;7.88;1.08;;;18.40;73.50;;;;;;4951964;28;20070;-67
2022/07/27 05:56:12;;;;;;;4.55;1.10;;;18.50;73.10;;;;;;4953686;28;20027;-70
2022/07/27 05:58:39;;;;;;;5.38;1.27;;;18.30;73.00;;;;;;4951670;28;20015;-67
2022/07/27 06:01:07;;;;;;;3.55;1.23;;;18.10;74.20;;;;;;4951203;28;20028;-71
2022/07/27 06:03:34;;;;;;;4.38;1.27;;;17.90;74.60;;;;;;4951583;28;20432;-72
2022/07/27 06:08:46;;;;;;;8.05;1.70;;;17.30;76.80;;;;;;4951847;28;20078;-69
2022/07/27 06:11:13;;;;;;;4.20;1.13;;;17.10;77.00;;;;;;4949698;28;20058;-69
2022/07/27 06:13:41;;;;;;;2.22;0.90;;;17.10;77.10;;;;;;4948076;28;20023;-69
2022/07/27 06:16:08;;;;;;;3.90;1.23;;;17.10;77.90;;;;;;4949716;28;20070;-68
2022/07/27 06:18:35;;;;;;;5.07;1.50;;;17.10;77.30;;;;;;4947623;28;20023;-71
2022/07/27 06:21:03;;;;;;;8.57;1.50;;;17.00;77.30;;;;;;4951246;28;20047;-69
2022/07/27 06:23:30;;;;;;;6.13;2.35;;;16.90;77.80;;;;;;4951907;28;20050;-68
2022/07/27 06:25:57;;;;;;;8.75;1.38;;;16.90;78.40;;;;;;4952129;28;20058;-73
2022/07/27 06:28:25;;;;;;;4.97;1.25;;;16.90;79.00;;;;;;4949791;28;20125;-70
2022/07/27 06:30:55;;;;;;;5.35;1.23;;;17.10;78.50;;;;;;4947964;28;20043;-67
2022/07/27 06:33:30;;;;;;;5.75;1.80;;;17.20;78.70;;;;;;4951406;28;20239;-69
2022/07/27 06:35:59;;;;;;;4.63;1.58;;;17.10;77.60;;;;;;4950777;28;20027;-68
2022/07/27 06:38:27;;;;;;;11.18;1.92;;;17.00;78.20;;;;;;4949570;28;20126;-68
2022/07/27 06:40:55;;;;;;;7.68;1.60;;;16.80;79.50;;;;;;4950448;28;20027;-70
2022/07/27 06:43:25;;;;;;;7.95;1.10;;;16.80;80.50;;;;;;4265030;28;10021595;-67
2022/07/27 06:45:57;;;;;;;4.03;1.27;;;16.90;79.90;;;;;;4947814;28;20337;-68
2022/07/27 06:48:25;;;;;;;4.45;1.50;;;17.10;79.50;;;;;;4947671;28;20027;-67
2022/07/27 06:50:53;;;;;;;5.35;1.40;;;17.40;81.00;;;;;;4948472;28;20027;-67
2022/07/27 06:53:20;;;;;;;9.32;1.48;;;17.60;79.00;;;;;;4948995;28;20075;-67
2022/07/27 06:55:48;;;;;;;10.00;2.25;;;17.70;78.70;;;;;;4936847;28;20038;-68
2022/07/27 06:58:15;;;;;;;11.13;1.40;;;17.70;77.30;;;;;;4948056;28;20047;-68
2022/07/27 07:00:42;;;;;;;4.80;1.60;;;17.50;79.00;;;;;;4947348;28;20054;-68
2022/07/27 07:03:10;;;;;;;8.35;1.85;;;17.10;80.10;;;;;;4950911;28;20030;-68
2022/07/27 07:05:45;;;;;;;6.75;1.90;;;16.70;80.20;;;;;;4950822;28;20027;-69
2022/07/27 07:08:13;;;;;;;7.82;1.92;;;16.20;82.70;;;;;;4947406;28;20119;-68
2022/07/27 07:10:44;;;;;;;11.75;2.33;;;15.80;85.90;;;;;;4948017;28;20069;-67
2022/07/27 07:13:12;;;;;;;6.90;2.00;;;15.50;87.50;;;;;;4947141;28;20030;-68
2022/07/27 07:15:41;;;;;;;8.05;2.33;;;15.20;90.40;;;;;;4944940;28;20027;-68
2022/07/27 07:18:09;;;;;;;11.65;2.15;;;15.00;88.30;;;;;;4942785;28;20377;-71
2022/07/27 07:20:37;;;;;;;10.25;2.38;;;14.90;90.10;;;;;;4956439;28;20162;-71
2022/07/27 07:23:05;;;;;;;9.23;2.10;;;14.70;90.80;;;;;;4943553;28;20110;-67
2022/07/27 07:25:33;;;;;;;10.88;2.25;;;14.60;91.90;;;;;;4957680;28;20404;-68
2022/07/27 07:28:01;;;;;;;10.15;1.92;;;14.60;93.30;;;;;;4942459;28;20436;-67
2022/07/27 07:30:28;;;;;;;10.43;2.08;;;14.50;92.00;;;;;;4959244;28;20035;-68
2022/07/27 07:32:56;;;;;;;10.15;2.45;;;14.40;93.20;;;;;;4942378;28;20114;-68
2022/07/27 07:35:24;;;;;;;12.05;2.42;;;14.20;94.50;;;;;;4945119;28;20054;-68
2022/07/27 07:37:51;;;;;;;8.88;2.17;;;14.00;95.60;;;;;;4943963;28;20514;-71
2022/07/27 07:40:19;;;;;;;7.30;2.88;;;13.90;96.30;;;;;;4944210;28;20042;-71
2022/07/27 07:42:52;;;;;;;6.90;2.45;;;13.80;97.00;;;;;;4942276;28;20027;-67
2022/07/27 07:45:20;;;;;;;7.13;1.75;;;13.80;97.50;;;;;;4925635;28;20540;-70
2022/07/27 07:47:48;;;;;;;5.18;1.30;;;13.80;96.60;;;;;;4945737;28;20424;-68
2022/07/27 07:50:16;;;;;;;10.43;1.75;;;14.00;94.60;;;;;;4942303;28;20023;-69
2022/07/27 07:52:43;;;;;;;7.90;1.40;;;14.00;96.80;;;;;;4942913;28;20043;-69
2022/07/27 07:55:11;;;;;;;5.68;1.60;;;13.90;96.80;;;;;;4924829;28;20349;-68
2022/07/27 07:57:38;;;;;;;8.23;3.70;;;13.80;97.00;;;;;;4943091;28;20035;-67
2022/07/27 08:00:08;;;;;;;10.07;5.00;;;13.70;94.80;;;;;;4942965;28;20150;-66
2022/07/27 08:02:58;;;;;;;7.90;3.45;;;13.50;94.70;;;;;;4942522;28;20026;-65
2022/07/27 08:05:26;;;;;;;6.13;2.15;;;13.50;94.20;;;;;;4959379;28;20035;-70
2022/07/27 08:07:54;;;;;;;9.70;1.35;;;13.30;94.40;;;;;;4943696;28;20067;-70
2022/07/27 08:10:22;;;;;;;5.93;1.80;;;13.40;94.00;;;;;;4944086;28;20031;-69
2022/07/27 08:12:52;;;;;;;10.57;2.63;;;13.60;93.40;;;;;;4943487;28;20134;-71
2022/07/27 08:15:20;;;;;;;8.68;2.42;;;13.80;92.60;;;;;;4941535;28;20065;-69
2022/07/27 08:17:48;;;;;;;11.35;2.95;;;13.90;92.50;;;;;;4941528;28;20684;-69
2022/07/27 08:20:16;;;;;;;6.25;1.67;;;13.90;92.40;;;;;;4943044;28;20023;-69
2022/07/27 08:22:44;;;;;;;6.63;2.53;;;14.00;92.20;;;;;;4943996;28;20023;-69
2022/07/27 08:25:12;;;;;;;6.43;1.70;;;13.90;92.10;;;;;;4943494;28;20463;-69
2022/07/27 08:27:39;;;;;;;6.15;1.67;;;13.90;91.90;;;;;;4944758;28;20257;-69
2022/07/27 08:30:08;;;;;;;6.18;2.05;;;13.90;91.70;;;;;;4943099;28;20038;-68
2022/07/27 08:32:47;;;;;;;4.07;1.42;;;13.90;91.80;;;;;;4944176;28;20023;-68
2022/07/27 08:35:17;;;;;;;6.30;1.20;;;13.90;91.70;;;;;;4944075;28;20138;-70
2022/07/27 08:37:44;;;;;;;8.32;1.50;;;13.90;91.20;;;;;;4943652;28;20401;-69
2022/07/27 08:40:12;;;;;;;6.90;1.10;;;14.00;91.10;;;;;;4945511;28;20054;-70
2022/07/27 08:42:42;;;;;;;8.60;1.25;;;14.00;91.30;;;;;;4944095;28;20078;-70
2022/07/27 08:45:12;;;;;;;5.07;0.90;;;14.00;91.40;;;;;;4943488;28;20385;-67
2022/07/27 08:47:40;;;;;;;7.75;1.10;;;13.80;91.70;;;;;;4944833;28;20027;-67
2022/07/27 08:50:22;;;;;;;5.22;1.02;;;13.60;91.90;;;;;;4943710;28;20114;-68
2022/07/27 08:53:04;;;;;;;5.05;0.77;;;13.70;91.90;;;;;;4944257;28;20050;-68
2022/07/27 08:55:38;;;;;;;5.15;0.93;;;13.60;92.00;;;;;;4942662;28;20027;-66
2022/07/27 08:58:06;;;;;;;7.78;1.15;;;13.40;92.30;;;;;;4942233;28;20049;-67
2022/07/27 09:00:37;;;;;;;4.97;0.90;;;13.40;92.10;;;;;;4956142;28;20387;-68
2022/07/27 09:03:04;;;;;;;4.10;0.90;;;13.30;92.50;;;;;;4941941;28;20057;-68
2022/07/27 09:05:32;;;;;;;11.80;1.85;;;13.20;92.70;;;;;;4941616;28;20476;-68
2022/07/27 09:08:26;;;;;;;7.18;1.10;;;13.10;92.90;;;;;;4941194;28;20031;-69
2022/07/27 09:10:55;;;;;;;5.07;1.35;;;13.00;93.00;;;;;;4940788;28;20028;-68
2022/07/27 09:13:28;;;;;;;5.78;1.05;;;12.90;93.30;;;;;;4956772;28;20039;-67
2022/07/27 09:16:07;;;;;;;9.65;1.45;;;12.80;93.40;;;;;;4938831;28;20035;-69
2022/07/27 09:18:38;;;;;;;2.47;0.70;;;12.80;93.50;;;;;;4940712;28;20142;-68
2022/07/27 09:21:13;;;;;;;4.90;1.27;;;12.80;93.30;;;;;;4940092;28;20031;-69
2022/07/27 09:23:56;;;;;;;3.45;0.75;;;12.60;93.80;;;;;;4942695;28;20030;-69
2022/07/27 09:26:25;;;;;;;2.75;0.40;;;12.70;93.70;;;;;;4941987;28;20027;-67
2022/07/27 09:29:14;;;;;;;6.78;1.10;;;12.80;93.50;;;;;;4939352;28;20082;-66
2022/07/27 09:31:49;;;;;;;6.45;0.88;;;12.80;93.30;;;;;;4940350;28;20329;-67
2022/07/27 09:34:32;;;;;;;8.13;1.40;;;12.80;93.60;;;;;;4939440;28;20344;-70
2022/07/27 09:37:02;;;;;;;8.20;1.40;;;12.60;94.20;;;;;;4941223;28;20035;-68
2022/07/27 09:39:29;;;;;;;4.15;1.83;;;12.50;94.10;;;;;;4922400;28;20043;-68
2022/07/27 09:42:01;;;;;;;8.02;1.38;;;12.30;94.80;;;;;;4939672;28;20154;-72
2022/07/27 09:44:35;;;;;;;2.85;0.68;;;12.40;94.50;;;;;;4922475;28;20431;-68
2022/07/27 09:47:19;;;;;;;2.83;1.00;;;12.40;94.60;;;;;;4944164;28;20027;-68
2022/07/27 09:49:46;;;;;;;6.63;1.83;;;12.30;94.80;;;;;;4943397;28;20035;-68
2022/07/27 09:52:24;;;;;;;10.07;1.48;;;12.20;95.40;;;;;;4942511;28;20023;-68
2022/07/27 09:54:52;;;;;;;3.90;0.80;;;12.10;95.30;;;;;;4943086;28;20098;-69
2022/07/27 09:57:19;;;;;;;2.90;0.95;;;12.00;96.10;;;;;;4940629;28;20118;-70
2022/07/27 09:59:47;;;;;;;5.32;0.90;;;11.80;96.00;;;;;;4939480;28;20037;-70
2022/07/27 10:02:14;;;;;;;5.30;1.20;;;11.60;97.00;;;;;;4940549;28;20142;-72
2022/07/27 10:04:42;;;;;;;2.38;0.90;;;11.50;97.20;;;;;;4940840;28;20058;-69
2022/07/27 10:07:10;;;;;;;2.95;0.88;;;11.30;98.40;;;;;;4940285;28;20454;-72
2022/07/27 10:09:37;;;;;;;5.20;1.27;;;11.20;99.50;;;;;;4940386;28;20090;-68
2022/07/27 10:12:05;;;;;;;2.63;0.90;;;11.00;99.90;;;;;;4942648;28;20635;-70
2022/07/27 10:14:33;;;;;;;1.55;0.75;;;10.90;99.90;;;;;;4924595;28;20171;-68
2022/07/27 10:17:01;;;;;;;2.97;1.13;;;10.70;99.90;;;;;;4940792;28;20026;-69
2022/07/27 10:19:49;;;;;;;2.53;0.88;;;10.50;99.90;;;;;;4939575;28;20030;-69
2022/07/27 10:22:36;;;;;;;1.92;0.75;;;10.40;99.90;;;;;;4940280;28;20400;-70
2022/07/27 10:25:04;;;;;;;2.15;0.85;;;10.20;99.90;;;;;;4945055;28;20031;-69
2022/07/27 10:27:31;;;;;;;1.75;0.95;;;10.00;99.90;;;;;;4923338;29;20035;-68
2022/07/27 10:29:58;;;;;;;1.55;0.70;;;9.90;99.90;;;;;;4940182;28;20121;-69
2022/07/27 10:32:30;;;;;;;1.10;0.90;;;9.80;99.90;;;;;;4943185;28;20027;-66
2022/07/27 10:34:58;;;;;;;5.70;1.20;;;9.70;99.90;;;;;;4939572;28;20035;-69
2022/07/27 10:37:33;;;;;;;4.63;1.30;;;9.70;99.90;;;;;;4942775;28;20612;-68
2022/07/27 10:43:04;;;;;;;1.67;1.10;;;9.70;99.90;;;;;;4938922;28;20107;-67
2022/07/27 10:45:46;;;;;;;5.25;2.75;;;9.90;99.90;;;;;;4940952;28;20165;-68
2022/07/27 10:48:38;;;;;;;7.95;4.03;;;10.00;99.90;;;;;;4923637;28;20552;-69
2022/07/27 10:51:07;;;;;;;4.20;2.65;;;9.90;99.90;;;;;;4940148;28;20042;-69
2022/07/27 10:53:40;;;;;;;3.45;0.75;;;9.80;99.90;;;;;;4939098;28;20484;-69
2022/07/27 10:56:09;;;;;;;4.13;1.08;;;10.10;99.90;;;;;;4921979;28;20137;-71
2022/07/27 10:58:36;;;;;;;2.53;0.80;;;10.10;99.90;;;;;;4937493;28;20466;-71
2022/07/27 11:01:07;;;;;;;2.60;0.70;;;9.90;99.90;;;;;;4938772;28;20566;-70
2022/07/27 11:03:38;;;;;;;2.22;0.93;;;9.80;99.90;;;;;;4939771;28;20787;-69
2022/07/27 11:06:09;;;;;;;2.97;1.35;;;9.80;99.90;;;;;;4954047;28;20122;-70
2022/07/27 11:08:42;;;;;;;4.28;1.45;;;9.70;99.90;;;;;;4921723;28;20031;-71
2022/07/27 11:11:10;;;;;;;;;;;9.60;99.90;;;;;;4943336;28;20086;-69
2022/07/27 11:13:41;;;;;;;3.80;1.25;;;9.50;99.90;;;;;;4944151;28;20406;-70
2022/07/27 11:16:10;;;;;;;5.18;3.72;;;9.50;99.90;;;;;;4942691;28;20039;-70
2022/07/27 11:18:40;;;;;;;1.55;1.10;;;9.50;99.90;;;;;;4945101;28;20495;-71
2022/07/27 11:21:16;;;;;;;5.63;4.13;;;9.50;99.90;;;;;;4938514;28;20417;-70
2022/07/27 11:23:46;;;;;;;4.97;1.33;;;9.50;99.90;;;;;;4953527;28;20118;-71
2022/07/27 11:26:14;;;;;;;2.42;0.82;;;9.50;99.90;;;;;;4940247;28;20033;-69
2022/07/27 11:28:42;;;;;;;1.00;0.50;;;9.70;99.90;;;;;;4938152;28;20035;-70
2022/07/27 11:31:12;;;;;;;3.13;0.93;;;9.80;99.90;;;;;;4945807;28;20031;-69
2022/07/27 11:33:59;;;;;;;1.27;0.60;;;9.70;99.90;;;;;;4946017;28;20027;-71
2022/07/27 11:37:02;;;;;;;0.95;0.45;;;9.60;99.90;;;;;;4940440;28;20062;-71
2022/07/27 11:39:33;;;;;;;1.73;0.80;;;9.70;99.90;;;;;;4902278;29;20040;-70
2022/07/27 11:42:02;;;;;;;1.42;0.80;;;9.90;99.90;;;;;;4903629;29;20266;-70
2022/07/27 11:44:30;;;;;;;1.38;0.65;;;10.10;99.90;;;;;;4906008;29;20036;-69
2022/07/27 11:46:58;;;;;;;3.22;0.80;;;10.30;99.90;;;;;;4908429;29;20061;-70
2022/07/27 11:49:30;;;;;;;3.92;0.73;;;10.40;99.90;;;;;;4906103;29;20047;-70
2022/07/27 11:51:59;;;;;;;;;;;10.40;99.90;;;;;;4905952;29;20151;-70
2022/07/27 11:54:32;;;;;;;3.35;0.70;;;10.40;99.90;;;;;;4905072;29;20449;-70
2022/07/27 11:57:11;;;;;;;3.33;0.90;;;10.20;99.90;;;;;;4905221;29;20083;-69
2022/07/27 11:59:43;;;;;;;2.10;0.90;;;10.20;99.90;;;;;;4903576;29;20276;-71
2022/07/27 12:02:14;;;;;;;6.82;1.75;;;10.40;99.90;;;;;;4889116;29;20040;-69
2022/07/27 12:04:44;;;;;;;3.67;0.80;;;10.40;99.90;;;;;;4909006;29;20040;-68
2022/07/27 12:07:13;;;;;;;10.80;4.22;;;10.30;99.90;;;;;;4908891;29;20032;-68
2022/07/27 12:09:56;;;;;;;4.82;1.75;;;10.10;99.90;;;;;;4908445;29;20428;-69
2022/07/27 12:12:24;;;;;;;;;;;10.00;99.90;;;;;;4910728;29;20028;-68
2022/07/27 12:14:55;;;;;;;2.60;0.52;;;9.80;99.90;;;;;;4923268;28;20352;-68
2022/07/27 12:17:35;;;;;;;1.08;0.60;;;9.70;99.90;;;;;;4949075;28;20031;-68
2022/07/27 12:20:13;;;;;;;3.35;0.50;;;9.70;99.90;;;;;;4947396;28;20038;-67
2022/07/27 12:22:43;;;;;;;1.60;0.70;;;9.80;99.90;;;;;;4947929;28;20034;-68
2022/07/27 12:25:28;;;;;;;5.63;0.88;;;9.80;99.90;;;;;;4930702;28;20381;-69
2022/07/27 12:27:57;;;;;;;2.53;0.90;;;9.70;99.90;;;;;;4933013;28;20331;-69
2022/07/27 12:30:34;;;;;;;0.80;0.70;;;9.60;99.90;;;;;;4932083;28;20038;-68
2022/07/27 12:33:05;;;;;;;2.05;0.57;;;9.50;99.90;;;;;;4946807;28;20108;-68
2022/07/27 12:35:47;;;;;;;1.45;0.60;;;9.40;99.90;;;;;;4946018;28;20416;-70
2022/07/27 12:38:15;;;;;;;2.53;0.40;;;9.30;99.90;;;;;;4948625;28;20028;-69
2022/07/27 12:40:54;;;;;;;1.63;0.60;;;9.30;99.90;;;;;;4949906;28;20321;-70
2022/07/27 12:43:23;;;;;;;1.70;0.70;;;9.20;99.90;;;;;;4947371;28;20461;-68
2022/07/27 12:45:52;;;;;;;0.47;0.40;;;9.20;99.90;;;;;;4951049;28;20030;-69
2022/07/27 12:48:28;;;;;;;1.38;0.60;;;9.10;99.90;;;;;;4948456;28;20491;-70
2022/07/27 12:51:04;;;;;;;0.65;0.50;;;9.20;99.90;;;;;;4949571;28;20126;-69
2022/07/27 12:53:32;;;;;;;1.38;0.60;;;9.10;99.90;;;;;;4948374;28;20129;-69
2022/07/27 12:56:03;;;;;;;1.05;0.50;;;9.10;99.90;;;;;;4947548;28;20025;-70
2022/07/27 12:58:30;;;;;;;1.55;0.60;;;9.10;99.90;;;;;;4948752;28;20396;-70
2022/07/27 13:00:58;;;;;;;4.85;0.40;;;9.00;99.90;;;;;;4949230;28;20020;-70
2022/07/27 13:03:25;;;;;;;2.63;0.70;;;9.10;99.90;;;;;;4930872;29;20046;-68
2022/07/27 13:05:52;;;;;;;5.32;0.82;;;9.10;99.90;;;;;;4950012;28;20023;-70